createdAt,value
2019-02-28T00:01:47.179Z,55.60
2019-02-28T00:04:14.173Z,55.68
2019-02-28T00:06:44.068Z,55.67
2019-02-28T00:09:09.652Z,55.80
2019-02-28T00:11:39.570Z,55.76
2019-02-28T00:14:04.973Z,55.67
2019-02-28T00:16:31.703Z,56.03
2019-02-28T00:18:58.476Z,56.32
2019-02-28T00:21:25.227Z,56.14
2019-02-28T00:23:56.463Z,56.25
2019-02-28T00:26:20.547Z,56.28
2019-02-28T00:28:47.297Z,56.32
2019-02-28T00:31:15.321Z,56.32
2019-02-28T00:33:42.224Z,56.27
2019-02-28T00:36:08.972Z,56.17
2019-02-28T00:38:35.743Z,56.04
2019-02-28T00:41:02.482Z,56.18
2019-02-28T00:43:29.271Z,56.26
2019-02-28T00:45:56.004Z,56.20
2019-02-28T00:48:22.744Z,56.29
2019-02-28T00:50:49.625Z,56.29
2019-02-28T00:53:16.437Z,56.28
2019-02-28T00:55:45.965Z,56.24
2019-02-28T00:58:11.799Z,56.15
2019-02-28T01:00:38.546Z,56.05
2019-02-28T01:03:05.290Z,56.18
2019-02-28T01:05:32.101Z,56.14
2019-02-28T01:07:58.838Z,55.53
2019-02-28T01:10:25.663Z,55.86
2019-02-28T01:12:54.314Z,56.04
2019-02-28T01:15:21.104Z,56.01
2019-02-28T01:17:47.820Z,56.16
2019-02-28T01:20:16.096Z,56.26
2019-02-28T01:22:43.245Z,56.42
2019-02-28T01:25:15.668Z,56.25
2019-02-28T01:27:42.420Z,55.90
2019-02-28T01:30:16.467Z,55.90
2019-02-28T01:32:43.468Z,56.00
2019-02-28T01:35:10.617Z,55.91
2019-02-28T01:37:37.360Z,55.91
2019-02-28T01:40:07.652Z,55.83
2019-02-28T01:42:34.392Z,56.04
2019-02-28T01:45:01.124Z,56.10
2019-02-28T01:47:27.915Z,56.59
2019-02-28T01:49:57.703Z,56.80
2019-02-28T01:52:23.238Z,56.81
2019-02-28T01:54:50.015Z,56.90
2019-02-28T01:57:16.746Z,57.09
2019-02-28T01:59:43.534Z,56.98
2019-02-28T02:02:10.244Z,57.05
2019-02-28T02:04:36.972Z,57.11
2019-02-28T02:07:03.772Z,56.94
2019-02-28T02:09:30.493Z,56.74
2019-02-28T02:11:57.973Z,56.83
2019-02-28T02:14:25.745Z,56.93
2019-02-28T02:16:52.460Z,57.07
2019-02-28T02:19:19.193Z,57.18
2019-02-28T02:21:45.982Z,57.03
2019-02-28T02:24:12.717Z,56.93
2019-02-28T02:26:42.370Z,57.21
2019-02-28T02:29:08.097Z,57.25
2019-02-28T02:31:35.047Z,57.21
2019-02-28T02:34:01.842Z,57.26
2019-02-28T02:36:28.608Z,57.18
2019-02-28T02:38:55.326Z,57.20
2019-02-28T02:41:22.122Z,57.08
2019-02-28T02:43:48.851Z,56.99
2019-02-28T02:46:20.400Z,56.83
2019-02-28T02:48:44.161Z,56.92
2019-02-28T02:51:12.381Z,56.90
2019-02-28T02:53:42.145Z,56.87
2019-02-28T02:56:08.052Z,57.20
2019-02-28T02:58:34.773Z,57.25
2019-02-28T03:01:01.536Z,57.33
2019-02-28T03:03:28.265Z,57.29
2019-02-28T03:05:55.035Z,57.35
2019-02-28T03:08:21.760Z,57.20
2019-02-28T03:10:51.909Z,57.25
2019-02-28T03:13:17.081Z,57.16
2019-02-28T03:15:43.802Z,57.26
2019-02-28T03:18:10.589Z,57.74
2019-02-28T03:20:41.175Z,57.77
2019-02-28T03:23:05.847Z,57.80
2019-02-28T03:25:32.662Z,57.46
2019-02-28T03:27:59.396Z,57.20
2019-02-28T03:30:31.280Z,57.32
2019-02-28T03:32:54.737Z,57.33
2019-02-28T03:35:21.653Z,57.95
2019-02-28T03:37:48.491Z,57.63
2019-02-28T03:40:15.274Z,57.49
2019-02-28T03:42:42.029Z,57.70
2019-02-28T03:45:12.129Z,57.68
2019-02-28T03:47:38.926Z,57.86
2019-02-28T03:50:07.740Z,58.06
2019-02-28T03:52:41.829Z,57.51
2019-02-28T03:55:06.796Z,57.49
2019-02-28T03:57:33.537Z,57.69
2019-02-28T04:00:00.478Z,57.93
2019-02-28T04:02:27.323Z,58.06
2019-02-28T04:04:54.176Z,58.01
2019-02-28T04:07:20.953Z,58.08
2019-02-28T04:09:47.693Z,57.72
2019-02-28T04:12:14.419Z,57.50
2019-02-28T04:14:41.216Z,57.29
2019-02-28T04:17:07.927Z,57.24
2019-02-28T04:19:34.726Z,57.26
2019-02-28T04:22:01.475Z,56.90
2019-02-28T04:24:28.215Z,56.99
2019-02-28T04:26:54.994Z,57.17
2019-02-28T04:29:21.726Z,57.69
2019-02-28T04:31:51.381Z,57.59
2019-02-28T04:34:17.051Z,57.57
2019-02-28T04:36:43.764Z,57.59
2019-02-28T04:39:10.557Z,57.67
2019-02-28T04:41:37.292Z,57.74
2019-02-28T04:44:04.033Z,57.42
2019-02-28T04:46:31.831Z,57.41
2019-02-28T04:48:59.247Z,57.30
2019-02-28T04:51:25.981Z,57.22
2019-02-28T04:53:53.764Z,57.28
2019-02-28T04:56:20.677Z,57.39
2019-02-28T04:58:47.414Z,57.41
2019-02-28T05:01:14.179Z,57.60
2019-02-28T05:03:40.944Z,57.16
2019-02-28T05:06:07.657Z,57.11
2019-02-28T05:08:38.623Z,57.32
2019-02-28T05:11:02.999Z,57.36
2019-02-28T05:13:29.748Z,57.67
2019-02-28T05:15:56.507Z,57.60
2019-02-28T05:18:23.247Z,57.80
2019-02-28T05:20:49.978Z,57.63
2019-02-28T05:23:16.815Z,57.72
2019-02-28T05:25:43.531Z,57.81
2019-02-28T05:28:10.253Z,57.59
2019-02-28T05:30:37.048Z,57.57
2019-02-28T05:33:06.672Z,57.39
2019-02-28T05:35:32.305Z,57.49
2019-02-28T05:37:59.119Z,57.45
2019-02-28T05:40:25.851Z,57.86
2019-02-28T05:42:54.605Z,57.70
2019-02-28T05:45:21.167Z,57.29
2019-02-28T05:47:47.903Z,57.50
2019-02-28T05:50:16.535Z,57.62
2019-02-28T05:52:43.206Z,57.89
2019-02-28T05:55:10.943Z,57.90
2019-02-28T05:57:39.306Z,57.83
2019-02-28T06:00:10.432Z,57.87
2019-02-28T06:02:37.181Z,57.72
2019-02-28T06:05:08.407Z,57.65
2019-02-28T06:07:34.911Z,57.56
2019-02-28T06:10:01.634Z,57.50
2019-02-28T06:12:28.415Z,57.47
2019-02-28T06:14:55.134Z,57.49
2019-02-28T06:17:21.933Z,57.79
2019-02-28T06:19:48.681Z,57.54
2019-02-28T06:22:15.411Z,57.77
2019-02-28T06:24:44.858Z,58.04
2019-02-28T06:27:10.759Z,58.15
2019-02-28T06:29:37.586Z,58.27
2019-02-28T06:32:04.345Z,58.10
2019-02-28T06:34:33.863Z,58.01
2019-02-28T06:37:03.835Z,57.68
2019-02-28T06:39:29.211Z,57.76
2019-02-28T06:41:55.948Z,58.23
2019-02-28T06:44:24.208Z,57.88
2019-02-28T06:46:51.324Z,57.97
2019-02-28T06:49:18.119Z,58.07
2019-02-28T06:51:44.836Z,58.11
2019-02-28T06:54:11.576Z,58.10
2019-02-28T06:56:38.397Z,58.27
2019-02-28T06:59:05.603Z,58.55
2019-02-28T07:01:32.451Z,58.54
2019-02-28T07:03:59.183Z,58.51
2019-02-28T07:06:25.905Z,58.44
2019-02-28T07:08:52.693Z,58.37
2019-02-28T07:11:39.152Z,58.32
2019-02-28T07:14:05.950Z,58.56
2019-02-28T07:16:34.417Z,58.40
2019-02-28T07:19:01.186Z,59.22
2019-02-28T07:21:27.984Z,58.46
2019-02-28T07:23:56.137Z,57.92
2019-02-28T07:26:22.867Z,58.07
2019-02-28T07:28:49.648Z,57.82
2019-02-28T07:31:16.398Z,60.48
2019-02-28T07:33:44.560Z,57.99
2019-02-28T07:36:11.719Z,57.04
2019-02-28T07:38:38.439Z,56.92
2019-02-28T07:41:05.172Z,57.12
2019-02-28T07:43:31.964Z,56.75
2019-02-28T07:45:58.686Z,56.46
2019-02-28T07:48:28.594Z,56.36
2019-02-28T07:50:54.005Z,56.08
2019-02-28T07:53:20.737Z,55.86
2019-02-28T07:55:47.470Z,55.96
2019-02-28T07:58:14.317Z,56.18
2019-02-28T08:00:41.051Z,56.20
2019-02-28T08:03:11.235Z,55.93
2019-02-28T08:05:37.047Z,55.97
2019-02-28T08:08:03.885Z,55.71
2019-02-28T08:10:32.917Z,55.57
2019-02-28T08:13:03.182Z,55.37
2019-02-28T08:15:28.730Z,55.35
2019-02-28T08:17:55.525Z,55.15
2019-02-28T08:20:22.245Z,55.08
2019-02-28T08:22:49.062Z,55.27
2019-02-28T08:25:15.950Z,55.33
2019-02-28T08:27:42.679Z,55.03
2019-02-28T08:30:26.428Z,54.50
2019-02-28T08:32:53.175Z,54.63
2019-02-28T08:35:19.904Z,55.31
2019-02-28T08:37:46.688Z,55.64
2019-02-28T08:40:17.611Z,55.30
2019-02-28T08:42:44.326Z,55.31
2019-02-28T08:45:13.909Z,55.11
2019-02-28T08:47:40.727Z,54.75
2019-02-28T08:50:11.548Z,54.35
2019-02-28T08:52:41.209Z,53.75
2019-02-28T08:55:13.712Z,53.60
2019-02-28T08:57:40.445Z,53.22
2019-02-28T09:00:19.525Z,53.02
2019-02-28T09:02:46.267Z,52.64
2019-02-28T09:05:14.206Z,52.37
2019-02-28T09:07:41.107Z,52.29
2019-02-28T09:10:23.693Z,52.17
2019-02-28T09:12:50.562Z,52.14
2019-02-28T09:15:17.899Z,52.08
2019-02-28T09:17:45.243Z,52.06
2019-02-28T09:20:16.033Z,52.00
2019-02-28T09:22:42.974Z,51.39
2019-02-28T09:25:23.048Z,50.94
2019-02-28T09:27:50.190Z,50.58
2019-02-28T09:30:44.946Z,50.51
2019-02-28T09:33:11.763Z,50.19
2019-02-28T09:35:38.503Z,49.94
2019-02-28T09:38:07.609Z,50.06
2019-02-28T09:40:33.851Z,50.43
2019-02-28T09:43:00.569Z,50.51
2019-02-28T09:45:29.666Z,50.47
2019-02-28T09:48:00.750Z,50.49
2019-02-28T09:50:25.150Z,50.65
2019-02-28T09:52:51.954Z,50.51
2019-02-28T09:55:18.690Z,50.17
2019-02-28T09:57:45.422Z,49.81
2019-02-28T10:00:19.294Z,49.57
2019-02-28T10:02:46.054Z,49.30
2019-02-28T10:05:13.097Z,48.36
2019-02-28T10:07:39.897Z,47.82
2019-02-28T10:10:20.821Z,47.32
2019-02-28T10:12:48.694Z,46.93
2019-02-28T10:15:22.458Z,47.82
2019-02-28T10:17:49.183Z,47.62
2019-02-28T10:20:34.270Z,47.54
2019-02-28T10:23:01.020Z,47.63
2019-02-28T10:25:27.755Z,46.58
2019-02-28T10:27:54.896Z,46.54
2019-02-28T10:30:31.593Z,47.19
2019-02-28T10:32:53.177Z,47.20
2019-02-28T10:35:19.927Z,46.86
2019-02-28T10:37:47.560Z,45.21
2019-02-28T10:40:18.715Z,43.87
2019-02-28T10:42:45.504Z,44.64
2019-02-28T10:45:14.122Z,42.40
2019-02-28T10:47:40.930Z,42.93
2019-02-28T10:50:20.228Z,43.28
2019-02-28T10:52:47.015Z,43.41
2019-02-28T10:55:15.975Z,42.60
2019-02-28T10:57:42.823Z,43.20
2019-02-28T11:00:36.034Z,41.36
2019-02-28T11:03:02.907Z,38.92
2019-02-28T11:05:38.059Z,38.74
2019-02-28T11:08:09.751Z,41.04
2019-02-28T11:10:41.233Z,39.37
2019-02-28T11:13:14.273Z,39.81
2019-02-28T11:15:41.130Z,37.53
2019-02-28T11:18:09.651Z,36.85
2019-02-28T11:20:38.089Z,35.60
2019-02-28T11:23:05.270Z,36.81
2019-02-28T11:25:34.747Z,36.95
2019-02-28T11:28:00.753Z,35.62
2019-02-28T11:30:29.977Z,35.05
2019-02-28T11:33:03.081Z,32.48
2019-02-28T11:35:26.586Z,31.67
2019-02-28T11:37:53.690Z,31.24
2019-02-28T11:40:22.603Z,29.84
2019-02-28T11:42:49.444Z,28.40
2019-02-28T11:45:31.992Z,27.84
2019-02-28T11:48:01.840Z,26.41
2019-02-28T11:50:28.638Z,25.66
2019-02-28T11:52:55.408Z,24.60
2019-02-28T11:55:22.265Z,23.10
2019-02-28T11:57:49.063Z,23.13
2019-02-28T12:00:28.187Z,22.37
2019-02-28T12:02:59.865Z,22.30
2019-02-28T12:05:24.108Z,21.88
2019-02-28T12:07:50.864Z,21.62
2019-02-28T12:10:17.751Z,21.38
2019-02-28T12:12:45.364Z,20.63
2019-02-28T12:15:16.078Z,20.01
2019-02-28T12:17:42.914Z,19.49
2019-02-28T12:20:12.469Z,19.38
2019-02-28T12:22:39.235Z,18.93
2019-02-28T12:25:10.327Z,18.21
2019-02-28T12:27:40.248Z,18.66
2019-02-28T12:30:15.381Z,18.44
2019-02-28T12:32:43.447Z,17.82
2019-02-28T12:35:11.181Z,17.92
2019-02-28T12:37:38.075Z,17.92
2019-02-28T12:40:22.062Z,18.48
2019-02-28T12:42:48.849Z,17.36
2019-02-28T12:45:24.412Z,17.36
2019-02-28T12:47:51.638Z,16.32
2019-02-28T12:50:18.597Z,16.07
2019-02-28T12:52:48.854Z,16.75
2019-02-28T12:55:18.567Z,16.21
2019-02-28T12:57:45.390Z,16.30
2019-02-28T13:00:38.135Z,16.63
2019-02-28T13:03:04.968Z,16.07
2019-02-28T13:05:31.787Z,16.23
2019-02-28T13:07:58.724Z,16.55
2019-02-28T13:10:27.993Z,16.18
2019-02-28T13:13:05.253Z,17.25
2019-02-28T13:15:22.880Z,16.04
2019-02-28T13:17:50.198Z,15.89
2019-02-28T13:20:34.739Z,16.89
2019-02-28T13:23:01.475Z,16.44
2019-02-28T13:25:28.217Z,16.21
2019-02-28T13:27:55.089Z,16.46
2019-02-28T13:30:25.240Z,16.22
2019-02-28T13:32:52.265Z,16.55
2019-02-28T13:35:31.261Z,16.17
2019-02-28T13:37:57.997Z,16.70
2019-02-28T13:40:24.891Z,16.76
2019-02-28T13:42:51.769Z,17.34
2019-02-28T13:45:22.951Z,17.32
2019-02-28T13:47:48.657Z,16.91
2019-02-28T13:50:32.605Z,16.86
2019-02-28T13:53:03.451Z,16.58
2019-02-28T13:55:27.852Z,17.33
2019-02-28T13:57:54.587Z,17.19
2019-02-28T14:00:25.937Z,17.67
2019-02-28T14:03:11.020Z,17.00
2019-02-28T14:05:40.529Z,16.57
2019-02-28T14:08:10.990Z,16.68
2019-02-28T14:10:35.179Z,17.18
2019-02-28T14:13:02.082Z,17.43
2019-02-28T14:15:33.635Z,17.29
2019-02-28T14:18:02.225Z,17.66
2019-02-28T14:20:29.309Z,17.85
2019-02-28T14:22:56.047Z,18.19
2019-02-28T14:25:22.829Z,17.52
2019-02-28T14:27:49.598Z,17.33
2019-02-28T14:30:19.665Z,17.50
2019-02-28T14:32:45.599Z,17.66
2019-02-28T14:35:22.722Z,16.88
2019-02-28T14:37:51.921Z,18.26
2019-02-28T14:40:17.939Z,17.45
2019-02-28T14:42:45.407Z,17.22
2019-02-28T14:45:24.426Z,17.58
2019-02-28T14:47:57.056Z,18.25
2019-02-28T14:50:19.978Z,18.89
2019-02-28T14:52:52.171Z,18.32
2019-02-28T14:55:20.002Z,18.86
2019-02-28T14:57:48.897Z,18.64
2019-02-28T15:00:27.763Z,19.62
2019-02-28T15:02:54.651Z,18.39
2019-02-28T15:05:21.671Z,17.64
2019-02-28T15:07:48.932Z,18.82
2019-02-28T15:10:21.644Z,18.65
2019-02-28T15:12:48.402Z,18.22
2019-02-28T15:15:19.565Z,19.57
2019-02-28T15:17:46.319Z,20.65
2019-02-28T15:20:13.752Z,21.51
2019-02-28T15:22:40.627Z,23.22
2019-02-28T15:25:15.262Z,24.41
2019-02-28T15:27:43.470Z,25.24
2019-02-28T15:30:30.515Z,26.53
2019-02-28T15:32:58.204Z,27.73
2019-02-28T15:35:24.953Z,27.71
2019-02-28T15:37:51.698Z,28.35
2019-02-28T15:40:27.661Z,28.70
2019-02-28T15:42:54.407Z,29.75
2019-02-28T15:45:21.219Z,30.40
2019-02-28T15:47:48.024Z,30.75
2019-02-28T15:50:17.185Z,31.84
2019-02-28T15:52:44.002Z,32.26
2019-02-28T15:55:17.137Z,32.70
2019-02-28T15:57:48.259Z,33.04
2019-02-28T16:00:25.089Z,33.18
2019-02-28T16:02:51.823Z,33.58
2019-02-28T16:05:18.761Z,34.44
2019-02-28T16:07:45.641Z,35.12
2019-02-28T16:10:23.042Z,35.66
2019-02-28T16:12:51.097Z,36.04
2019-02-28T16:15:18.091Z,36.09
2019-02-28T16:17:44.940Z,35.97
2019-02-28T16:20:13.509Z,36.75
2019-02-28T16:22:40.565Z,37.59
2019-02-28T16:25:18.462Z,37.25
2019-02-28T16:27:45.285Z,37.27
2019-02-28T16:30:15.732Z,37.88
2019-02-28T16:32:45.576Z,38.45
2019-02-28T16:35:14.587Z,38.43
2019-02-28T16:37:41.027Z,39.07
2019-02-28T16:40:11.950Z,38.70
2019-02-28T16:42:38.726Z,39.04
2019-02-28T16:45:10.565Z,39.02
2019-02-28T16:47:37.341Z,39.30
2019-02-28T16:50:08.690Z,40.29
2019-02-28T16:52:37.327Z,40.30
2019-02-28T16:55:08.133Z,40.26
2019-02-28T16:57:34.926Z,40.71
2019-02-28T17:00:04.086Z,41.45
2019-02-28T17:02:32.183Z,41.46
2019-02-28T17:04:59.676Z,41.34
2019-02-28T17:07:26.621Z,41.98
2019-02-28T17:09:53.357Z,41.67
2019-02-28T17:12:20.129Z,41.69
2019-02-28T17:14:48.308Z,42.30
2019-02-28T17:17:15.460Z,42.34
2019-02-28T17:19:42.216Z,42.54
2019-02-28T17:22:08.991Z,42.74
2019-02-28T17:24:35.755Z,42.56
2019-02-28T17:27:06.128Z,42.90
2019-02-28T17:29:31.079Z,43.15
2019-02-28T17:31:57.847Z,43.39
2019-02-28T17:34:25.286Z,43.18
2019-02-28T17:36:52.304Z,43.46
2019-02-28T17:39:19.195Z,43.36
2019-02-28T17:41:46.270Z,43.30
2019-02-28T17:44:27.330Z,43.79
2019-02-28T17:47:02.510Z,43.77
2019-02-28T17:49:46.671Z,44.08
2019-02-28T17:52:24.973Z,44.41
2019-02-28T17:55:31.147Z,43.77
2019-02-28T17:58:06.726Z,43.92
2019-02-28T18:00:48.192Z,44.58
2019-02-28T18:03:58.350Z,44.98
2019-02-28T18:07:13.222Z,45.04
2019-02-28T18:10:08.079Z,45.55
2019-02-28T18:12:55.432Z,45.68
2019-02-28T18:15:42.099Z,45.26
2019-02-28T18:18:48.191Z,45.65
2019-02-28T18:21:50.910Z,45.64
2019-02-28T18:25:14.082Z,45.82
2019-02-28T18:27:58.810Z,46.01
2019-02-28T18:31:07.698Z,45.82
2019-02-28T18:33:35.130Z,46.08
2019-02-28T18:36:05.114Z,46.01
2019-02-28T18:38:35.650Z,45.94
2019-02-28T18:41:05.421Z,46.11
2019-02-28T18:43:29.763Z,45.55
2019-02-28T18:45:57.740Z,45.67
2019-02-28T18:48:25.027Z,45.61
2019-02-28T18:50:52.155Z,45.54
2019-02-28T18:53:19.325Z,46.14
2019-02-28T18:55:46.441Z,45.89
2019-02-28T18:58:13.657Z,46.14
2019-02-28T19:00:40.803Z,45.78
2019-02-28T19:03:07.863Z,46.26
2019-02-28T19:05:34.973Z,46.45
2019-02-28T19:08:02.104Z,46.43
2019-02-28T19:10:29.195Z,46.74
2019-02-28T19:12:56.356Z,46.57
2019-02-28T19:15:23.510Z,46.71
2019-02-28T19:17:50.555Z,46.50
2019-02-28T19:20:17.758Z,46.23
2019-02-28T19:22:44.899Z,46.55
2019-02-28T19:25:12.051Z,46.41
2019-02-28T19:27:38.876Z,46.38
2019-02-28T19:30:12.806Z,46.70
2019-02-28T19:32:39.847Z,46.88
2019-02-28T19:35:07.025Z,46.75
2019-02-28T19:37:34.164Z,46.93
2019-02-28T19:40:01.055Z,47.02
2019-02-28T19:42:27.857Z,47.08
2019-02-28T19:44:54.621Z,47.08
2019-02-28T19:47:21.509Z,46.89
2019-02-28T19:49:48.776Z,46.96
2019-02-28T19:52:15.944Z,47.19
2019-02-28T19:54:43.003Z,47.21
2019-02-28T19:57:10.071Z,47.59
2019-02-28T19:59:36.837Z,47.69
2019-02-28T20:02:04.345Z,47.84
2019-02-28T20:04:31.121Z,47.94
2019-02-28T20:06:57.943Z,47.69
2019-02-28T20:09:24.671Z,47.46
2019-02-28T20:11:51.414Z,47.34
2019-02-28T20:14:18.272Z,47.66
2019-02-28T20:16:45.051Z,47.65
2019-02-28T20:19:11.846Z,47.97
2019-02-28T20:21:38.712Z,47.98
2019-02-28T20:24:05.958Z,48.00
2019-02-28T20:26:33.086Z,48.05
2019-02-28T20:29:00.032Z,48.26
2019-02-28T20:31:27.022Z,48.44
2019-02-28T20:33:53.757Z,48.12
2019-02-28T20:36:20.806Z,48.06
2019-02-28T20:38:47.531Z,48.29
2019-02-28T20:41:14.322Z,48.56
2019-02-28T20:43:41.151Z,48.54
2019-02-28T20:46:07.908Z,48.46
2019-02-28T20:48:34.644Z,48.43
2019-02-28T20:51:01.433Z,48.50
2019-02-28T20:53:28.163Z,48.47
2019-02-28T20:55:54.905Z,48.66
2019-02-28T20:58:21.706Z,48.66
2019-02-28T21:00:48.446Z,48.77
2019-02-28T21:03:15.197Z,48.26
2019-02-28T21:05:41.973Z,48.14
2019-02-28T21:08:08.708Z,48.34
2019-02-28T21:10:35.447Z,48.20
2019-02-28T21:13:02.361Z,47.69
2019-02-28T21:15:32.652Z,47.97
2019-02-28T21:17:59.415Z,48.45
2019-02-28T21:20:26.201Z,48.12
2019-02-28T21:22:52.928Z,47.91
2019-02-28T21:25:19.682Z,47.98
2019-02-28T21:27:46.447Z,47.99
2019-02-28T21:30:20.014Z,47.88
2019-02-28T21:32:46.798Z,47.74
2019-02-28T21:35:15.042Z,47.88
2019-02-28T21:37:41.879Z,47.87
2019-02-28T21:40:12.852Z,47.84
2019-02-28T21:42:39.588Z,47.92
2019-02-28T21:45:11.593Z,48.03
2019-02-28T21:47:40.135Z,48.11
2019-02-28T21:50:11.283Z,48.07
2019-02-28T21:52:38.084Z,47.93
2019-02-28T21:55:17.100Z,47.91
2019-02-28T21:57:43.896Z,48.09
2019-02-28T22:00:26.220Z,48.26
2019-02-28T22:02:53.013Z,48.24
2019-02-28T22:05:19.848Z,48.01
2019-02-28T22:07:46.590Z,48.03
2019-02-28T22:10:14.815Z,47.92
2019-02-28T22:12:41.593Z,48.69
2019-02-28T22:15:16.040Z,48.87
2019-02-28T22:17:44.564Z,49.11
2019-02-28T22:20:15.556Z,49.57
2019-02-28T22:22:46.855Z,49.51
2019-02-28T22:25:16.144Z,49.55
2019-02-28T22:27:45.867Z,49.07
2019-02-28T22:30:21.041Z,48.90
2019-02-28T22:32:47.771Z,48.76
2019-02-28T22:35:19.340Z,48.95
2019-02-28T22:37:46.216Z,48.99
2019-02-28T22:40:13.429Z,49.00
2019-02-28T22:42:40.223Z,48.94
2019-02-28T22:45:07.231Z,49.22
2019-02-28T22:47:33.977Z,49.16
2019-02-28T22:50:07.631Z,49.45
2019-02-28T22:52:37.436Z,49.70
2019-02-28T22:55:07.255Z,49.70
2019-02-28T22:57:34.375Z,49.98
2019-02-28T23:00:01.196Z,50.24
2019-02-28T23:02:29.224Z,50.06
2019-02-28T23:04:56.067Z,50.07
2019-02-28T23:07:22.808Z,50.26
2019-02-28T23:09:49.535Z,50.09
2019-02-28T23:12:16.297Z,50.07
2019-02-28T23:14:43.026Z,49.91
2019-02-28T23:17:09.814Z,49.51
2019-02-28T23:19:36.586Z,49.48
2019-02-28T23:22:03.320Z,49.68
2019-02-28T23:24:30.134Z,49.68
2019-02-28T23:27:14.652Z,49.33
2019-02-28T23:29:48.621Z,49.38
2019-02-28T23:32:31.988Z,49.74
2019-02-28T23:34:58.778Z,49.75
2019-02-28T23:37:25.510Z,49.95
2019-02-28T23:39:52.237Z,50.04
2019-02-28T23:42:19.034Z,49.90
2019-02-28T23:44:45.752Z,49.69
2019-02-28T23:47:12.497Z,49.42
2019-02-28T23:49:39.308Z,49.31
2019-02-28T23:52:06.039Z,49.50
2019-02-28T23:54:32.781Z,49.77
2019-02-28T23:56:59.561Z,49.75
2019-02-28T23:59:26.305Z,50.01
